Time;durP1;ratioP1;P1;durP2;ratioP2;P2;SDS_P1;SDS_P2;PMS_P1;PMS_P2;Temp;Humidity;BMP_temperature;BMP_pressure;BME280_temperature;BME280_humidity;BME280_pressure;Samples;Min_cycle;Max_cycle;Signal;HPM_P1;HPM_P2
2023/04/25 00:01:13;;;;;;;1999.90;999.90;;;14.40;99.90;;;;;;6238451;22;20459;-58
2023/04/25 00:03:38;;;;;;;1999.90;999.90;;;14.40;99.90;;;;;;6240720;22;20038;-59
2023/04/25 00:06:04;;;;;;;1999.90;999.90;;;14.50;99.90;;;;;;6240256;22;20020;-58
2023/04/25 00:08:30;;;;;;;1999.90;999.90;;;14.50;99.90;;;;;;6240344;22;20083;-59
2023/04/25 00:10:57;;;;;;;1999.90;999.90;;;14.50;99.90;;;;;;6238899;23;20418;-58
2023/04/25 00:13:23;;;;;;;1999.90;999.90;;;14.40;99.90;;;;;;6239494;22;20052;-59
2023/04/25 00:15:48;;;;;;;1999.90;999.90;;;14.40;99.90;;;;;;6240077;22;20015;-58
2023/04/25 00:18:15;;;;;;;1999.90;999.90;;;14.40;99.90;;;;;;6239030;23;20038;-59
2023/04/25 00:20:46;;;;;;;1999.90;999.90;;;14.40;99.90;;;;;;6241625;23;20012;-59
2023/04/25 00:23:17;;;;;;;1999.90;999.90;;;14.40;99.90;;;;;;6238125;23;20330;-59
2023/04/25 00:25:44;;;;;;;1999.90;999.90;;;14.40;99.90;;;;;;6239466;23;20336;-58
2023/04/25 00:28:10;;;;;;;1999.90;999.90;;;14.30;99.90;;;;;;6239891;22;20137;-59
2023/04/25 00:30:36;;;;;;;1999.90;999.90;;;14.40;99.90;;;;;;6240008;23;20324;-59
2023/04/25 00:33:02;;;;;;;1999.90;999.90;;;14.30;99.90;;;;;;6240712;23;20016;-59
2023/04/25 00:35:27;;;;;;;1999.90;999.90;;;14.30;99.90;;;;;;6241273;23;20381;-59
2023/04/25 00:37:54;;;;;;;1999.90;999.90;;;14.30;99.90;;;;;;6241668;23;20016;-58
2023/04/25 00:40:20;;;;;;;1999.90;999.90;;;14.30;99.90;;;;;;6240435;22;20066;-59
2023/04/25 00:42:47;;;;;;;1999.90;999.90;;;14.30;99.90;;;;;;6239635;23;20409;-59
2023/04/25 00:45:15;;;;;;;1999.90;999.90;;;14.30;99.90;;;;;;6237389;22;20016;-59
2023/04/25 00:47:41;;;;;;;1999.90;999.90;;;14.30;99.90;;;;;;6238879;22;20023;-59
2023/04/25 00:50:08;;;;;;;1999.90;999.90;;;14.30;99.90;;;;;;6236674;22;20401;-59
2023/04/25 00:52:34;;;;;;;1999.90;999.90;;;14.20;99.90;;;;;;6237863;22;20385;-58
2023/04/25 00:55:00;;;;;;;1999.90;999.90;;;14.20;99.90;;;;;;6240506;23;20020;-58
2023/04/25 00:57:26;;;;;;;1999.90;999.90;;;14.20;99.90;;;;;;6242094;22;20008;-58
2023/04/25 00:59:54;;;;;;;1999.90;999.90;;;14.20;99.90;;;;;;6240503;23;20430;-58
2023/04/25 01:02:20;;;;;;;1999.90;999.90;;;14.20;99.90;;;;;;6242211;22;20042;-58
2023/04/25 01:04:47;;;;;;;1999.90;999.90;;;14.20;99.90;;;;;;6243156;22;20070;-58
2023/04/25 01:07:13;;;;;;;1999.90;999.90;;;14.20;99.90;;;;;;6241010;22;20019;-59
2023/04/25 01:09:38;;;;;;;1999.90;999.90;;;14.20;99.90;;;;;;6238607;23;20344;-58
2023/04/25 01:12:04;;;;;;;1999.90;999.90;;;14.20;99.90;;;;;;6238798;23;20336;-59
2023/04/25 01:14:30;;;;;;;1999.90;999.90;;;14.10;99.90;;;;;;6241648;22;20015;-59
2023/04/25 01:16:56;;;;;;;1999.90;999.90;;;14.10;99.90;;;;;;6241411;23;20058;-59
2023/04/25 01:19:22;;;;;;;1999.90;999.90;;;14.10;99.90;;;;;;6242047;22;20012;-58
2023/04/25 01:21:48;;;;;;;1999.90;999.90;;;14.10;99.90;;;;;;6242180;22;20011;-59
2023/04/25 01:24:14;;;;;;;1999.90;999.90;;;14.10;99.90;;;;;;6240144;23;20148;-59
2023/04/25 01:26:44;;;;;;;1999.90;999.90;;;14.10;99.90;;;;;;6243209;22;20012;-58
2023/04/25 01:29:10;;;;;;;1999.90;999.90;;;14.10;99.90;;;;;;6242267;22;20307;-59
2023/04/25 01:31:36;;;;;;;1999.90;999.90;;;14.10;99.90;;;;;;6242912;22;20023;-58
2023/04/25 01:34:02;;;;;;;1999.90;999.90;;;14.10;99.90;;;;;;6240804;23;20021;-59
2023/04/25 01:36:28;;;;;;;1999.90;999.90;;;14.10;99.90;;;;;;6241926;22;20088;-59
2023/04/25 01:38:55;;;;;;;1999.90;999.90;;;14.10;99.90;;;;;;6242753;22;20066;-59
2023/04/25 01:41:22;;;;;;;1999.90;999.90;;;14.00;99.90;;;;;;6242502;22;20019;-59
2023/04/25 01:43:48;;;;;;;1999.90;999.90;;;14.00;99.90;;;;;;6239037;23;20015;-59
2023/04/25 01:46:14;;;;;;;1999.90;999.90;;;14.00;99.90;;;;;;6238882;23;20470;-59
2023/04/25 01:48:40;;;;;;;1999.90;999.90;;;14.00;99.90;;;;;;6239752;23;20020;-58
2023/04/25 01:51:05;;;;;;;1999.90;999.90;;;14.00;99.90;;;;;;6238840;22;20329;-59
2023/04/25 01:53:31;;;;;;;1999.90;999.90;;;14.00;99.90;;;;;;6239863;23;20296;-59
2023/04/25 01:55:57;;;;;;;1999.90;999.90;;;14.00;99.90;;;;;;6240917;22;20091;-59
2023/04/25 01:58:23;;;;;;;1999.90;999.90;;;14.00;99.90;;;;;;6241419;23;20407;-59
2023/04/25 02:00:48;;;;;;;1999.90;999.90;;;14.00;99.90;;;;;;6240898;23;20018;-59
2023/04/25 02:03:14;;;;;;;1999.90;999.90;;;14.00;99.90;;;;;;6240575;23;20443;-59
2023/04/25 02:05:40;;;;;;;1999.90;999.90;;;14.00;99.90;;;;;;6242015;23;20013;-59
2023/04/25 02:08:07;;;;;;;1999.90;999.90;;;14.00;99.90;;;;;;6240282;22;20490;-59
2023/04/25 02:10:33;;;;;;;1999.90;999.90;;;13.90;99.90;;;;;;6240630;22;20325;-58
2023/04/25 02:12:59;;;;;;;1999.90;999.90;;;14.00;99.90;;;;;;6241480;22;20016;-58
2023/04/25 02:15:25;;;;;;;1999.90;999.90;;;13.90;99.90;;;;;;6241888;23;20092;-59
2023/04/25 02:17:52;;;;;;;1999.90;999.90;;;14.00;99.90;;;;;;6241583;22;20075;-59
2023/04/25 02:20:19;;;;;;;1999.90;999.90;;;13.90;99.90;;;;;;6241582;22;20086;-59
2023/04/25 02:22:45;;;;;;;1999.90;999.90;;;13.90;99.90;;;;;;6240563;22;20334;-58
2023/04/25 02:25:11;;;;;;;1999.90;999.90;;;13.90;99.90;;;;;;6239627;22;20016;-59
2023/04/25 02:27:37;;;;;;;1999.90;999.90;;;13.90;99.90;;;;;;6241866;22;20020;-58
2023/04/25 02:30:04;;;;;;;1999.90;999.90;;;13.90;99.90;;;;;;6240451;23;20024;-58
2023/04/25 02:32:30;;;;;;;1999.90;999.90;;;13.90;99.90;;;;;;6240213;22;20016;-59
2023/04/25 02:34:58;;;;;;;1999.90;999.90;;;13.90;99.90;;;;;;6240995;23;20004;-58
2023/04/25 02:37:24;;;;;;;1999.90;999.90;;;13.90;99.90;;;;;;6241155;22;20070;-59
2023/04/25 02:39:49;;;;;;;1999.90;999.90;;;13.90;99.90;;;;;;6236612;23;20020;-59
2023/04/25 02:42:15;;;;;;;1999.90;999.90;;;13.90;99.90;;;;;;6240223;23;20019;-59
2023/04/25 02:44:41;;;;;;;1999.90;999.90;;;13.90;99.90;;;;;;6240195;23;20008;-59
2023/04/25 02:47:07;;;;;;;1999.90;999.90;;;13.90;99.90;;;;;;6241287;22;20012;-59
2023/04/25 02:49:32;;;;;;;1999.90;999.90;;;13.90;99.90;;;;;;6241310;23;20059;-59
2023/04/25 02:51:58;;;;;;;1999.90;999.90;;;13.80;99.90;;;;;;6241086;23;20011;-59
2023/04/25 02:54:23;;;;;;;1999.90;999.90;;;13.80;99.90;;;;;;6241696;23;20023;-58
2023/04/25 02:56:49;;;;;;;1999.90;999.90;;;13.80;99.90;;;;;;6241192;23;20458;-58
2023/04/25 02:59:15;;;;;;;1999.90;999.90;;;13.80;99.90;;;;;;6240351;22;20385;-59
2023/04/25 03:01:40;;;;;;;1999.90;999.90;;;13.80;99.90;;;;;;6241379;23;20012;-59
2023/04/25 03:04:06;;;;;;;1999.90;999.90;;;13.80;99.90;;;;;;6239390;23;20332;-59
2023/04/25 03:06:32;;;;;;;1999.90;999.90;;;13.80;99.90;;;;;;6241729;23;20341;-59
2023/04/25 03:08:57;;;;;;;1999.90;999.90;;;13.80;99.90;;;;;;6240924;23;20031;-59
2023/04/25 03:11:25;;;;;;;1999.90;999.90;;;13.70;99.90;;;;;;6241863;23;20034;-58
2023/04/25 03:13:51;;;;;;;1999.90;999.90;;;13.80;99.90;;;;;;6239949;22;20491;-59
2023/04/25 03:16:16;;;;;;;1999.90;999.90;;;13.80;99.90;;;;;;6240595;23;20047;-58
2023/04/25 03:18:42;;;;;;;1999.90;999.90;;;13.80;99.90;;;;;;6240908;23;20334;-59
2023/04/25 03:21:08;;;;;;;1999.90;999.90;;;13.80;99.90;;;;;;6239627;23;20008;-59
2023/04/25 03:23:33;;;;;;;1999.90;999.90;;;13.70;99.90;;;;;;6240052;22;20039;-59
2023/04/25 03:25:59;;;;;;;1999.90;999.90;;;13.70;99.90;;;;;;6241086;23;20019;-59
2023/04/25 03:28:25;;;;;;;1999.90;999.90;;;13.70;99.90;;;;;;6240483;22;20043;-59
2023/04/25 03:30:50;;;;;;;1999.90;999.90;;;13.70;99.90;;;;;;6242131;22;20008;-59
2023/04/25 03:33:16;;;;;;;1999.90;999.90;;;13.70;99.90;;;;;;6240071;23;20658;-59
2023/04/25 03:35:42;;;;;;;1999.90;999.90;;;13.70;99.90;;;;;;6242233;23;20016;-59
2023/04/25 03:38:08;;;;;;;1999.90;999.90;;;13.70;99.90;;;;;;6240761;22;20307;-59
2023/04/25 03:40:33;;;;;;;1999.90;999.90;;;13.70;99.90;;;;;;6242097;23;20070;-59
2023/04/25 03:42:59;;;;;;;1999.90;999.90;;;13.70;99.90;;;;;;6240612;23;20016;-59
2023/04/25 03:45:25;;;;;;;1999.90;999.90;;;13.70;99.90;;;;;;6238223;23;20087;-59
2023/04/25 03:47:50;;;;;;;1999.90;999.90;;;13.70;99.90;;;;;;6239790;23;20083;-59
2023/04/25 03:50:16;;;;;;;1999.90;999.90;;;13.70;99.90;;;;;;6240303;23;20456;-59
2023/04/25 03:52:43;;;;;;;1999.90;999.90;;;13.60;99.90;;;;;;6237184;23;20016;-59
2023/04/25 03:55:08;;;;;;;1999.90;999.90;;;13.60;99.90;;;;;;6237751;22;20410;-58
2023/04/25 03:57:34;;;;;;;1999.90;999.90;;;13.60;99.90;;;;;;6239088;23;20040;-58
2023/04/25 04:00:00;;;;;;;1999.90;999.90;;;13.60;99.90;;;;;;6237013;23;20011;-59
2023/04/25 04:02:25;;;;;;;1999.90;999.90;;;13.60;99.90;;;;;;6238087;23;20070;-59
2023/04/25 04:04:51;;;;;;;1999.90;999.90;;;13.60;99.90;;;;;;6240473;23;20008;-58
2023/04/25 04:07:16;;;;;;;1999.90;999.90;;;13.60;99.90;;;;;;6240293;23;20023;-59
2023/04/25 04:09:42;;;;;;;1999.90;999.90;;;13.60;99.90;;;;;;6239852;23;20015;-59
2023/04/25 04:12:08;;;;;;;1999.90;999.90;;;13.60;99.90;;;;;;6239649;23;20425;-59
2023/04/25 04:14:33;;;;;;;1999.90;999.90;;;13.60;99.90;;;;;;6240597;22;20058;-59
2023/04/25 04:16:59;;;;;;;1999.90;999.90;;;13.50;99.90;;;;;;6239683;23;20018;-59
2023/04/25 04:19:25;;;;;;;1999.90;999.90;;;13.60;99.90;;;;;;6239931;23;20012;-59
2023/04/25 04:21:50;;;;;;;1999.90;999.90;;;13.50;99.90;;;;;;6241047;22;20035;-59
2023/04/25 04:24:16;;;;;;;1999.90;999.90;;;13.50;99.90;;;;;;6239855;23;20020;-59
2023/04/25 04:26:44;;;;;;;1999.90;999.90;;;13.50;99.90;;;;;;6240985;22;20012;-58
2023/04/25 04:29:10;;;;;;;1999.90;999.90;;;13.60;99.90;;;;;;6239242;22;20437;-59
2023/04/25 04:31:36;;;;;;;1999.90;999.90;;;13.50;99.90;;;;;;6237697;23;20012;-58
2023/04/25 04:34:03;;;;;;;1999.90;999.90;;;13.50;99.90;;;;;;6239194;23;20016;-59
2023/04/25 04:36:29;;;;;;;1999.90;999.90;;;13.50;99.90;;;;;;6241127;22;20008;-59
2023/04/25 04:38:56;;;;;;;1999.90;999.90;;;13.50;99.90;;;;;;6238316;22;20012;-59
2023/04/25 04:41:22;;;;;;;1999.90;999.90;;;13.50;99.90;;;;;;6238720;22;20008;-58
2023/04/25 04:43:47;;;;;;;1999.90;999.90;;;13.50;99.90;;;;;;6240443;22;20054;-59
2023/04/25 04:46:14;;;;;;;1999.90;999.90;;;13.50;99.90;;;;;;6238609;23;20409;-58
2023/04/25 04:48:39;;;;;;;1999.90;999.90;;;13.70;99.90;;;;;;6237304;22;20384;-57
2023/04/25 04:51:06;;;;;;;1999.90;999.90;;;13.90;99.90;;;;;;6238317;23;20044;-60
2023/04/25 04:53:32;;;;;;;1999.90;999.90;;;14.20;99.90;;;;;;6240182;22;20437;-58
2023/04/25 04:55:58;;;;;;;1999.90;999.90;;;14.40;99.90;;;;;;6240523;23;20217;-59
2023/04/25 04:58:23;;;;;;;1999.90;999.90;;;14.80;99.90;;;;;;6239524;22;20016;-62
2023/04/25 05:00:49;;;;;;;1999.90;999.90;;;15.10;99.90;;;;;;6239509;23;20012;-58
2023/04/25 05:03:15;;;;;;;1999.90;999.90;;;15.30;99.90;;;;;;6236323;22;20023;-58
2023/04/25 05:05:41;;;;;;;1999.90;999.90;;;15.50;99.90;;;;;;6238150;22;20019;-58
2023/04/25 05:08:07;;;;;;;1999.90;999.90;;;15.80;99.90;;;;;;6239065;23;20023;-57
2023/04/25 05:10:32;;;;;;;1999.90;999.90;;;16.10;99.90;;;;;;6240805;23;20012;-57
2023/04/25 05:12:58;;;;;;;1999.90;999.90;;;16.30;99.90;;;;;;6238318;23;20117;-57
2023/04/25 05:15:24;;;;;;;1999.90;999.90;;;16.60;99.90;;;;;;6238895;23;20009;-57
2023/04/25 05:17:49;;;;;;;1999.90;999.90;;;16.80;99.90;;;;;;6237718;23;20012;-57
2023/04/25 05:20:15;;;;;;;1999.90;999.90;;;17.10;99.90;;;;;;6237140;23;20422;-58
2023/04/25 05:22:41;;;;;;;1999.90;999.90;;;17.30;99.90;;;;;;6238304;23;20363;-59
2023/04/25 05:25:08;;;;;;;1999.90;999.90;;;17.40;99.90;;;;;;6239562;22;20050;-59
2023/04/25 05:27:33;;;;;;;1999.90;999.90;;;17.50;99.90;;;;;;6240948;22;20027;-58
2023/04/25 05:29:59;;;;;;;1999.90;999.90;;;17.40;99.90;;;;;;6240130;23;20008;-58
2023/04/25 05:32:26;;;;;;;1999.90;999.90;;;17.40;99.90;;;;;;6241066;23;20016;-60
2023/04/25 05:34:51;;;;;;;1999.90;999.90;;;17.30;99.90;;;;;;6239140;23;20027;-58
2023/04/25 05:37:17;;;;;;;1999.90;999.90;;;17.20;99.90;;;;;;6238369;23;20348;-58
2023/04/25 05:39:43;;;;;;;1999.90;999.90;;;17.20;99.90;;;;;;6241072;23;20487;-58
2023/04/25 05:42:08;;;;;;;1999.90;999.90;;;17.10;99.90;;;;;;6241778;23;20004;-58
2023/04/25 05:44:34;;;;;;;1999.90;999.90;;;17.10;99.90;;;;;;6241782;23;20091;-58
2023/04/25 05:46:59;;;;;;;1999.90;999.90;;;17.00;99.90;;;;;;6242600;23;20012;-57
2023/04/25 05:49:25;;;;;;;1999.90;999.90;;;16.90;99.90;;;;;;6242632;23;20012;-57
2023/04/25 05:51:51;;;;;;;1999.90;999.90;;;16.80;99.90;;;;;;6242374;23;20022;-57
2023/04/25 05:54:16;;;;;;;1999.90;999.90;;;16.70;99.90;;;;;;6241205;23;20436;-57
2023/04/25 05:56:42;;;;;;;1999.90;999.90;;;16.60;99.90;;;;;;6242638;23;20008;-57
2023/04/25 05:59:07;;;;;;;1999.90;999.90;;;16.50;99.90;;;;;;6240300;23;20071;-57
2023/04/25 06:01:33;;;;;;;1999.90;999.90;;;16.40;99.90;;;;;;6241864;23;20344;-57
2023/04/25 06:03:58;;;;;;;1999.90;999.90;;;16.30;99.90;;;;;;6238822;23;20012;-57
2023/04/25 06:06:25;;;;;;;1999.90;999.90;;;16.20;99.90;;;;;;6241088;23;20019;-57
2023/04/25 06:08:51;;;;;;;1999.90;999.90;;;16.20;99.90;;;;;;6242914;22;20420;-57
2023/04/25 06:11:16;;;;;;;1999.90;999.90;;;16.10;99.90;;;;;;6241521;23;20043;-57
